createdAt,value
2023-01-09T00:02:44.428Z,5.10
2023-01-09T00:05:31.627Z,5.10
2023-01-09T00:08:20.308Z,5.10
2023-01-09T00:11:07.613Z,5.10
2023-01-09T00:13:54.994Z,5.00
2023-01-09T00:16:42.262Z,5.00
2023-01-09T00:19:29.827Z,5.00
2023-01-09T00:22:17.641Z,5.00
2023-01-09T00:25:07.436Z,4.90
2023-01-09T00:27:54.611Z,4.90
2023-01-09T00:30:42.180Z,4.90
2023-01-09T00:33:32.122Z,4.90
2023-01-09T00:36:19.590Z,4.90
2023-01-09T00:39:07.147Z,4.90
2023-01-09T00:41:58.547Z,4.90
2023-01-09T00:44:50.379Z,4.90
2023-01-09T00:47:42.794Z,4.90
2023-01-09T00:50:33.034Z,4.80
2023-01-09T00:53:23.298Z,4.80
2023-01-09T00:56:15.650Z,4.80
2023-01-09T00:59:04.987Z,4.80
2023-01-09T01:01:52.245Z,4.80
2023-01-09T01:04:56.719Z,4.80
2023-01-09T01:07:44.922Z,4.70
2023-01-09T01:10:32.371Z,4.70
2023-01-09T01:13:20.058Z,4.70
2023-01-09T01:16:10.951Z,4.70
2023-01-09T01:18:58.279Z,4.60
2023-01-09T01:21:45.876Z,4.60
2023-01-09T01:24:33.439Z,4.60
2023-01-09T01:27:20.911Z,4.60
2023-01-09T01:30:09.875Z,4.60
2023-01-09T01:32:58.757Z,4.60
2023-01-09T01:35:46.007Z,4.60
2023-01-09T01:38:33.968Z,4.60
2023-01-09T01:41:29.538Z,4.60
2023-01-09T01:44:54.133Z,4.60
2023-01-09T01:47:50.301Z,4.60
2023-01-09T01:50:44.131Z,4.50
2023-01-09T01:53:34.448Z,4.60
2023-01-09T01:56:25.575Z,4.60
2023-01-09T01:59:18.245Z,4.60
2023-01-09T02:02:06.478Z,4.50
2023-01-09T02:04:57.037Z,4.50
2023-01-09T02:07:45.901Z,4.40
2023-01-09T02:10:34.474Z,4.40
2023-01-09T02:13:22.068Z,4.30
2023-01-09T02:16:26.954Z,4.30
2023-01-09T02:19:42.308Z,4.30
2023-01-09T02:22:38.019Z,4.30
2023-01-09T02:25:49.328Z,4.30
2023-01-09T02:28:53.709Z,4.30
2023-01-09T02:31:49.346Z,4.30
2023-01-09T02:34:45.805Z,4.30
2023-01-09T02:37:39.883Z,4.30
2023-01-09T02:40:33.901Z,4.30
2023-01-09T02:43:21.407Z,4.30
2023-01-09T02:46:19.883Z,4.30
2023-01-09T02:49:09.258Z,4.30
2023-01-09T02:52:15.192Z,4.30
2023-01-09T02:55:10.831Z,4.30
2023-01-09T02:58:23.346Z,4.20
2023-01-09T03:01:24.539Z,4.30
2023-01-09T03:04:21.897Z,4.20
2023-01-09T03:07:16.591Z,4.30
2023-01-09T03:10:10.300Z,4.20
2023-01-09T03:13:01.331Z,4.30
2023-01-09T03:15:50.730Z,4.30
2023-01-09T03:18:39.774Z,4.30
2023-01-09T03:21:29.625Z,4.30
2023-01-09T03:24:17.030Z,4.30
2023-01-09T03:27:04.529Z,4.40
2023-01-09T03:29:53.280Z,4.40
2023-01-09T03:32:40.911Z,4.50
2023-01-09T03:35:28.877Z,4.50
2023-01-09T03:38:17.388Z,4.50
2023-01-09T03:41:05.019Z,4.50
2023-01-09T03:43:52.456Z,4.50
2023-01-09T03:46:39.951Z,4.50
2023-01-09T03:49:27.422Z,4.50
2023-01-09T03:52:15.100Z,4.50
2023-01-09T03:55:04.032Z,4.50
2023-01-09T03:57:52.645Z,4.60
2023-01-09T04:00:40.411Z,4.60
2023-01-09T04:03:27.993Z,4.60
2023-01-09T04:06:15.427Z,4.60
2023-01-09T04:09:02.842Z,4.60
2023-01-09T04:11:51.521Z,4.70
2023-01-09T04:14:38.594Z,4.70
2023-01-09T04:17:26.216Z,4.70
2023-01-09T04:20:13.864Z,4.80
2023-01-09T04:23:01.111Z,4.80
2023-01-09T04:25:48.988Z,4.80
2023-01-09T04:28:37.730Z,4.80
2023-01-09T04:31:24.785Z,4.80
2023-01-09T04:34:12.304Z,4.80
2023-01-09T04:36:59.826Z,4.90
2023-01-09T04:39:47.572Z,4.90
2023-01-09T04:42:34.691Z,4.90
2023-01-09T04:45:23.421Z,4.90
2023-01-09T04:48:10.837Z,4.90
2023-01-09T04:50:58.243Z,4.90
2023-01-09T04:53:45.697Z,4.90
2023-01-09T04:56:33.114Z,4.90
2023-01-09T04:59:20.488Z,4.90
2023-01-09T05:02:09.232Z,4.90
2023-01-09T05:04:56.253Z,4.90
2023-01-09T05:07:43.796Z,4.90
2023-01-09T05:10:31.253Z,4.90
2023-01-09T05:13:18.460Z,5.00
2023-01-09T05:16:06.183Z,5.00
2023-01-09T05:18:57.122Z,5.00
2023-01-09T05:21:44.263Z,5.00
2023-01-09T05:24:31.853Z,5.00
2023-01-09T05:27:19.285Z,5.00
2023-01-09T05:30:07.729Z,5.00
2023-01-09T05:32:55.259Z,5.00
2023-01-09T05:35:43.969Z,5.00
2023-01-09T05:38:31.197Z,5.00
2023-01-09T05:41:18.641Z,5.10
2023-01-09T05:44:06.437Z,5.10
2023-01-09T05:46:53.914Z,5.10
2023-01-09T05:49:41.543Z,5.10
2023-01-09T05:52:30.563Z,5.10
2023-01-09T05:55:18.129Z,5.10
2023-01-09T05:58:05.614Z,5.10
2023-01-09T06:00:54.707Z,5.10
2023-01-09T06:03:41.951Z,5.10
2023-01-09T06:06:29.340Z,5.10
2023-01-09T06:09:18.093Z,5.10
2023-01-09T06:12:05.658Z,5.10
2023-01-09T06:14:53.241Z,5.10
2023-01-09T06:17:40.560Z,5.10
2023-01-09T06:20:28.205Z,5.10
2023-01-09T06:23:15.734Z,5.10
2023-01-09T06:26:04.633Z,5.10
2023-01-09T06:28:51.809Z,5.10
2023-01-09T06:31:39.205Z,5.10
2023-01-09T06:34:26.927Z,5.10
2023-01-09T06:37:14.034Z,5.10
2023-01-09T06:40:01.420Z,5.10
2023-01-09T06:42:50.640Z,5.10
2023-01-09T06:45:37.832Z,5.10
2023-01-09T06:48:25.668Z,5.10
2023-01-09T06:51:12.682Z,5.10
2023-01-09T06:54:00.163Z,5.10
2023-01-09T06:56:47.893Z,5.20
2023-01-09T06:59:36.979Z,5.20
2023-01-09T07:02:24.489Z,5.10
2023-01-09T07:05:12.004Z,5.20
2023-01-09T07:07:59.270Z,5.20
2023-01-09T07:10:46.571Z,5.20
2023-01-09T07:13:34.169Z,5.20
2023-01-09T07:16:22.729Z,5.20
2023-01-09T07:19:09.769Z,5.30
2023-01-09T07:21:56.995Z,5.20
2023-01-09T07:24:44.995Z,5.20
2023-01-09T07:27:32.487Z,5.30
2023-01-09T07:30:20.046Z,5.30
2023-01-09T07:33:08.799Z,5.30
2023-01-09T07:35:56.021Z,5.30
2023-01-09T07:38:43.302Z,5.30
2023-01-09T07:41:30.608Z,5.40
2023-01-09T07:44:18.132Z,5.40
2023-01-09T07:47:05.708Z,5.40
2023-01-09T07:49:54.211Z,5.40
2023-01-09T07:52:41.541Z,5.40
2023-01-09T07:55:28.866Z,5.40
2023-01-09T07:58:16.472Z,5.40
2023-01-09T08:01:03.926Z,5.40
2023-01-09T08:03:51.302Z,5.40
2023-01-09T08:06:40.182Z,5.50
2023-01-09T08:09:27.459Z,5.50
2023-01-09T08:12:14.787Z,5.50
2023-01-09T08:15:02.170Z,5.50
2023-01-09T08:17:49.489Z,5.60
2023-01-09T08:20:37.047Z,5.60
2023-01-09T08:23:25.779Z,5.60
2023-01-09T08:26:13.103Z,5.60
2023-01-09T08:29:00.655Z,5.60
2023-01-09T08:31:48.174Z,5.70
2023-01-09T08:34:36.730Z,5.70
2023-01-09T08:37:23.838Z,5.70
2023-01-09T08:40:14.526Z,5.70
2023-01-09T08:43:19.222Z,5.70
2023-01-09T08:46:24.568Z,5.70
2023-01-09T08:49:11.768Z,5.80
2023-01-09T08:51:59.336Z,5.80
2023-01-09T08:54:46.960Z,5.90
2023-01-09T08:57:35.703Z,5.90
2023-01-09T09:00:24.957Z,5.90
2023-01-09T09:03:12.691Z,5.90
2023-01-09T09:06:00.276Z,5.90
2023-01-09T09:08:47.712Z,5.90
2023-01-09T09:11:35.291Z,6.00
2023-01-09T09:14:41.833Z,6.00
2023-01-09T09:17:28.999Z,6.00
2023-01-09T09:20:16.594Z,6.10
2023-01-09T09:23:03.714Z,6.00
2023-01-09T09:25:51.222Z,6.10
2023-01-09T09:28:38.784Z,6.10
2023-01-09T09:31:27.589Z,6.10
2023-01-09T09:34:14.961Z,6.10
2023-01-09T09:37:02.375Z,6.20
2023-01-09T09:39:49.652Z,6.20
2023-01-09T09:43:30.331Z,6.20
2023-01-09T09:46:26.290Z,6.30
2023-01-09T09:49:20.609Z,6.30
2023-01-09T09:52:20.607Z,6.30
2023-01-09T09:55:19.302Z,6.40
2023-01-09T09:58:12.813Z,6.50
2023-01-09T10:01:01.369Z,6.50
2023-01-09T10:03:52.242Z,6.60
2023-01-09T10:06:45.047Z,6.60
2023-01-09T10:09:44.092Z,6.70
2023-01-09T10:12:32.875Z,6.80
2023-01-09T10:15:29.823Z,6.80
2023-01-09T10:18:24.139Z,6.90
2023-01-09T10:21:18.819Z,7.00
2023-01-09T10:24:20.898Z,7.00
2023-01-09T10:27:18.586Z,7.10
2023-01-09T10:30:29.279Z,7.20
2023-01-09T10:33:31.163Z,7.20
2023-01-09T10:36:34.423Z,7.20
2023-01-09T10:39:26.138Z,7.30
2023-01-09T10:42:22.098Z,7.30
2023-01-09T10:45:19.827Z,7.30
2023-01-09T10:48:18.696Z,7.40
2023-01-09T10:51:16.195Z,7.40
2023-01-09T10:54:06.375Z,7.40
2023-01-09T10:56:59.383Z,7.40
2023-01-09T10:59:46.608Z,7.50
2023-01-09T11:02:36.522Z,7.50
2023-01-09T11:05:26.736Z,7.50
2023-01-09T11:08:25.023Z,7.60
2023-01-09T11:11:13.078Z,7.60
2023-01-09T11:14:13.752Z,7.70
2023-01-09T11:17:03.320Z,7.60
2023-01-09T11:20:05.344Z,7.70
2023-01-09T11:22:54.949Z,7.70
2023-01-09T11:25:53.687Z,7.70
2023-01-09T11:28:41.261Z,7.70
2023-01-09T11:31:30.420Z,7.70
2023-01-09T11:34:19.130Z,7.70
2023-01-09T11:37:11.291Z,7.70
2023-01-09T11:39:59.944Z,7.70
2023-01-09T11:43:04.288Z,7.70
2023-01-09T11:46:01.007Z,7.70
2023-01-09T11:48:57.705Z,7.70
2023-01-09T11:51:45.609Z,7.70
2023-01-09T11:54:35.395Z,7.70
2023-01-09T11:57:23.942Z,7.70
2023-01-09T12:00:25.684Z,7.70
2023-01-09T12:03:19.273Z,7.60
2023-01-09T12:06:20.328Z,7.70
2023-01-09T12:09:08.970Z,7.70
2023-01-09T12:12:03.186Z,7.70
2023-01-09T12:15:03.238Z,7.70
2023-01-09T12:18:09.481Z,7.80
2023-01-09T12:21:24.067Z,7.80
2023-01-09T12:24:30.714Z,7.80
2023-01-09T12:27:29.434Z,7.90
2023-01-09T12:30:29.134Z,8.00
2023-01-09T12:33:27.923Z,8.10
2023-01-09T12:36:23.829Z,8.20
2023-01-09T12:39:25.408Z,8.20
2023-01-09T12:42:25.952Z,8.20
2023-01-09T12:45:42.769Z,8.10
2023-01-09T12:48:44.656Z,8.10
2023-01-09T12:51:38.525Z,8.10
2023-01-09T12:54:35.878Z,8.10
2023-01-09T12:57:31.233Z,8.00
2023-01-09T13:00:24.640Z,8.00
2023-01-09T13:03:19.502Z,8.10
2023-01-09T13:06:12.158Z,8.10
2023-01-09T13:09:08.252Z,8.20
2023-01-09T13:12:04.175Z,8.30
2023-01-09T13:14:56.273Z,8.30
2023-01-09T13:17:47.563Z,8.30
2023-01-09T13:20:39.438Z,8.40
2023-01-09T13:23:37.257Z,8.40
2023-01-09T13:26:28.379Z,8.40
2023-01-09T13:29:21.541Z,8.30
2023-01-09T13:32:30.483Z,8.40
2023-01-09T13:35:17.991Z,8.30
2023-01-09T13:38:05.353Z,8.30
2023-01-09T13:41:23.258Z,8.40
2023-01-09T13:44:25.379Z,8.40
2023-01-09T13:47:21.112Z,8.30
2023-01-09T13:50:27.636Z,8.30
2023-01-09T13:53:57.765Z,8.30
2023-01-09T13:57:25.914Z,8.20
2023-01-09T14:00:50.875Z,8.10
2023-01-09T14:03:39.739Z,8.10
2023-01-09T14:06:28.098Z,8.00
2023-01-09T14:09:21.828Z,8.00
2023-01-09T14:12:09.459Z,7.90
2023-01-09T14:14:59.660Z,7.90
2023-01-09T14:17:49.952Z,8.00
2023-01-09T14:20:40.890Z,8.00
2023-01-09T14:23:50.339Z,8.00
2023-01-09T14:26:46.070Z,8.00
2023-01-09T14:29:45.058Z,8.00
2023-01-09T14:32:45.867Z,7.90
2023-01-09T14:35:42.900Z,7.90
2023-01-09T14:38:33.134Z,8.00
2023-01-09T14:41:46.765Z,8.00
2023-01-09T14:44:46.404Z,8.00
2023-01-09T14:47:38.443Z,8.00
2023-01-09T14:50:33.154Z,8.00
2023-01-09T14:53:24.523Z,8.00
2023-01-09T14:56:27.654Z,8.00
2023-01-09T14:59:15.613Z,8.00
2023-01-09T15:02:03.065Z,7.90
2023-01-09T15:04:50.819Z,7.90
2023-01-09T15:07:44.549Z,7.90
2023-01-09T15:10:36.855Z,7.90
2023-01-09T15:13:30.703Z,7.80
2023-01-09T15:16:20.638Z,7.80
2023-01-09T15:19:09.699Z,7.70
2023-01-09T15:22:05.262Z,7.60
2023-01-09T15:24:52.508Z,7.50
2023-01-09T15:27:49.693Z,7.50
2023-01-09T15:30:37.663Z,7.50
2023-01-09T15:33:25.136Z,7.40
2023-01-09T15:36:16.858Z,7.40
2023-01-09T15:39:08.194Z,7.40
2023-01-09T15:42:13.918Z,7.40
2023-01-09T15:45:05.148Z,7.40
2023-01-09T15:47:53.002Z,7.50
2023-01-09T15:50:41.441Z,7.50
2023-01-09T15:53:30.332Z,7.50
2023-01-09T15:56:20.139Z,7.50
2023-01-09T15:59:24.557Z,7.50
2023-01-09T16:02:33.023Z,7.50
2023-01-09T16:05:20.952Z,7.60
2023-01-09T16:08:30.280Z,7.60
2023-01-09T16:11:24.620Z,7.50
2023-01-09T16:14:15.399Z,7.60
2023-01-09T16:17:06.828Z,7.60
2023-01-09T16:19:57.881Z,7.60
2023-01-09T16:22:54.492Z,7.70
2023-01-09T16:25:41.843Z,7.60
2023-01-09T16:28:30.706Z,7.60
2023-01-09T16:31:23.692Z,7.60
2023-01-09T16:34:14.308Z,7.60
2023-01-09T16:37:03.819Z,7.60
2023-01-09T16:40:24.098Z,7.60
2023-01-09T16:43:14.614Z,7.50
2023-01-09T16:46:02.822Z,7.40
2023-01-09T16:48:50.426Z,7.40
2023-01-09T16:51:37.529Z,7.30
2023-01-09T16:54:26.156Z,7.30
2023-01-09T16:57:17.066Z,7.20
2023-01-09T17:00:05.766Z,7.20
2023-01-09T17:02:53.030Z,7.20
2023-01-09T17:05:40.076Z,7.20
2023-01-09T17:08:29.900Z,7.20
2023-01-09T17:11:22.679Z,7.20
2023-01-09T17:14:12.755Z,7.20
2023-01-09T17:17:00.333Z,7.20
2023-01-09T17:19:47.590Z,7.20
2023-01-09T17:22:34.748Z,7.20
2023-01-09T17:25:39.363Z,7.20
2023-01-09T17:28:33.944Z,7.20
2023-01-09T17:31:21.506Z,7.10
2023-01-09T17:34:10.119Z,7.00
2023-01-09T17:36:57.461Z,7.00
2023-01-09T17:39:45.155Z,7.00
2023-01-09T17:42:32.534Z,7.00
2023-01-09T17:45:21.506Z,7.00
2023-01-09T17:48:15.091Z,7.00
2023-01-09T17:51:02.345Z,7.00
2023-01-09T17:53:49.971Z,7.00
2023-01-09T17:56:38.805Z,7.00
2023-01-09T17:59:27.594Z,7.00
2023-01-09T18:02:19.978Z,6.90
2023-01-09T18:05:08.099Z,6.90
2023-01-09T18:07:55.721Z,7.00
2023-01-09T18:10:45.341Z,6.90
2023-01-09T18:13:33.459Z,6.90
2023-01-09T18:16:24.064Z,7.00
2023-01-09T18:19:12.910Z,7.00
2023-01-09T18:22:00.447Z,7.00
2023-01-09T18:24:47.565Z,7.00
2023-01-09T18:27:37.760Z,7.00
2023-01-09T18:30:25.052Z,7.00
2023-01-09T18:33:13.279Z,7.00
2023-01-09T18:36:08.742Z,7.00
2023-01-09T18:38:56.156Z,6.90
2023-01-09T18:41:43.511Z,7.00
2023-01-09T18:44:30.664Z,6.90
2023-01-09T18:47:18.068Z,6.90
2023-01-09T18:50:06.149Z,6.90
2023-01-09T18:52:55.182Z,6.90
2023-01-09T18:55:42.531Z,6.80
2023-01-09T18:58:30.101Z,6.80
2023-01-09T19:01:17.960Z,6.70
2023-01-09T19:04:05.753Z,6.70
2023-01-09T19:06:53.006Z,6.70
2023-01-09T19:09:41.920Z,6.60
2023-01-09T19:12:29.351Z,6.60
2023-01-09T19:15:16.908Z,6.60
2023-01-09T19:18:04.404Z,6.60
2023-01-09T19:20:52.677Z,6.50
2023-01-09T19:23:41.025Z,6.50
2023-01-09T19:26:30.856Z,6.50
2023-01-09T19:29:18.452Z,6.50
2023-01-09T19:32:08.402Z,6.50
2023-01-09T19:34:55.807Z,6.60
2023-01-09T19:37:43.243Z,6.60
2023-01-09T19:40:30.887Z,6.60
2023-01-09T19:43:26.567Z,6.60
2023-01-09T19:46:16.014Z,6.70
2023-01-09T19:49:06.088Z,6.70
2023-01-09T19:51:55.071Z,6.60
2023-01-09T19:54:42.807Z,6.70
2023-01-09T19:57:30.375Z,6.80
2023-01-09T20:00:19.538Z,6.80
2023-01-09T20:03:06.891Z,6.80
2023-01-09T20:05:54.355Z,6.80
2023-01-09T20:08:42.550Z,6.90
2023-01-09T20:11:32.043Z,6.80
2023-01-09T20:14:20.752Z,6.80
2023-01-09T20:17:09.585Z,6.90
2023-01-09T20:19:56.664Z,6.90
2023-01-09T20:22:44.003Z,6.90
2023-01-09T20:25:31.603Z,7.00
2023-01-09T20:28:19.127Z,7.00
2023-01-09T20:31:10.003Z,7.00
2023-01-09T20:34:00.111Z,7.10
2023-01-09T20:36:47.489Z,7.10
2023-01-09T20:39:34.875Z,7.10
2023-01-09T20:42:22.404Z,7.20
2023-01-09T20:45:10.365Z,7.20
2023-01-09T20:47:57.984Z,7.10
2023-01-09T20:50:46.746Z,7.20
2023-01-09T20:53:34.028Z,7.20
2023-01-09T20:56:21.451Z,7.20
2023-01-09T20:59:17.873Z,7.20
2023-01-09T21:02:05.539Z,7.20
2023-01-09T21:04:53.135Z,7.30
2023-01-09T21:07:42.006Z,7.30
2023-01-09T21:10:29.406Z,7.20
2023-01-09T21:13:17.092Z,7.20
2023-01-09T21:16:08.895Z,7.20
2023-01-09T21:18:57.229Z,7.10
2023-01-09T21:21:44.512Z,7.20
2023-01-09T21:24:33.470Z,7.10
2023-01-09T21:27:21.032Z,7.10
2023-01-09T21:30:10.124Z,7.10
2023-01-09T21:32:57.231Z,7.10
2023-01-09T21:35:44.664Z,7.10
2023-01-09T21:38:31.979Z,7.10
2023-01-09T21:41:39.886Z,7.00
2023-01-09T21:44:44.346Z,7.00
2023-01-09T21:47:33.271Z,7.00
2023-01-09T21:50:20.458Z,6.90
2023-01-09T21:53:08.405Z,6.90
2023-01-09T21:55:55.884Z,6.90
2023-01-09T21:58:46.274Z,6.90
2023-01-09T22:01:33.495Z,6.90
2023-01-09T22:04:22.469Z,6.90
2023-01-09T22:07:11.126Z,6.90
2023-01-09T22:09:58.523Z,6.90
2023-01-09T22:13:05.955Z,6.90
2023-01-09T22:15:55.348Z,6.90
2023-01-09T22:18:42.874Z,6.80
2023-01-09T22:21:30.473Z,6.80
2023-01-09T22:24:19.849Z,6.80
2023-01-09T22:27:07.181Z,6.80
2023-01-09T22:29:54.755Z,6.80
2023-01-09T22:32:43.750Z,6.80
2023-01-09T22:35:31.109Z,6.80
2023-01-09T22:38:18.509Z,6.80
2023-01-09T22:41:06.543Z,6.80
2023-01-09T22:43:54.042Z,6.80
2023-01-09T22:46:41.364Z,6.80
2023-01-09T22:49:37.309Z,6.80
2023-01-09T22:52:37.599Z,6.70
2023-01-09T22:55:25.228Z,6.70
2023-01-09T22:58:12.758Z,6.80
2023-01-09T23:01:00.315Z,6.70
2023-01-09T23:03:47.606Z,6.70
2023-01-09T23:06:36.115Z,6.70
2023-01-09T23:09:23.319Z,6.60
2023-01-09T23:12:11.247Z,6.70
2023-01-09T23:14:58.760Z,6.70
2023-01-09T23:17:46.419Z,6.70
2023-01-09T23:20:33.833Z,6.70
2023-01-09T23:23:23.350Z,6.70
2023-01-09T23:26:11.049Z,6.70
2023-01-09T23:28:58.742Z,6.70
2023-01-09T23:31:46.544Z,6.70
2023-01-09T23:34:33.876Z,6.70
2023-01-09T23:37:21.431Z,6.70
2023-01-09T23:40:11.935Z,6.70
2023-01-09T23:43:10.310Z,6.70
2023-01-09T23:45:57.815Z,6.70
2023-01-09T23:48:45.081Z,6.70
2023-01-09T23:51:32.470Z,6.70
2023-01-09T23:54:19.891Z,6.70
2023-01-09T23:57:08.647Z,6.60
2023-01-09T23:59:55.904Z,6.60
